Salem, Oregon
Current Conditions -  °F | °C
As of 9:56 AM on Friday 19 Dec 2014 (Local Time) from KSLE Reporting Station
Broken Clouds Broken Clouds  
Wind Chill: 42°   Ceiling: 5000
Heat Index: 47°   Visibility: 10mi
Dew Point: 43°   Wind: 10mph
Humidity: 86%   Direction: 170°S
Pressure: 30.01"   Gusts: NA
Location:  44.93°N, 123.04°W
Report Text: KSLE 191756Z 17009KT 10SM SCT025 BKN050 BKN080 08/06 A3001 RMK AO2 RAE20 SLP162 P0001 60018 T00830061 10083 20072 53018
Loading
Personal Weather Stations






























Interactive Weather Map New forecast layout! Learn more

10-Day Weather Forecast

Advertisements
Track Severe Weather on mobile